createdAt,value
2023-03-17T00:00:22.693Z,87.38
2023-03-17T00:02:50.117Z,87.31
2023-03-17T00:05:20.680Z,87.29
2023-03-17T00:07:48.130Z,87.28
2023-03-17T00:10:24.033Z,86.98
2023-03-17T00:12:55.616Z,86.97
2023-03-17T00:15:23.788Z,87.06
2023-03-17T00:17:50.761Z,86.88
2023-03-17T00:20:32.036Z,86.97
2023-03-17T00:23:00.416Z,87.06
2023-03-17T00:25:29.424Z,87.16
2023-03-17T00:27:58.357Z,87.20
2023-03-17T00:30:28.383Z,87.08
2023-03-17T00:32:57.668Z,87.03
2023-03-17T00:35:29.094Z,87.05
2023-03-17T00:37:57.794Z,86.63
2023-03-17T00:40:29.672Z,86.68
2023-03-17T00:42:58.304Z,86.74
2023-03-17T00:45:27.181Z,86.87
2023-03-17T00:47:56.303Z,87.00
2023-03-17T00:50:26.479Z,86.99
2023-03-17T00:52:56.637Z,87.13
2023-03-17T00:55:26.624Z,87.16
2023-03-17T00:57:54.500Z,87.33
2023-03-17T01:00:29.805Z,87.02
2023-03-17T01:02:57.544Z,87.18
2023-03-17T01:05:26.198Z,86.98
2023-03-17T01:07:57.919Z,87.03
2023-03-17T01:10:28.190Z,86.75
2023-03-17T01:12:59.125Z,86.72
2023-03-17T01:15:31.663Z,86.73
2023-03-17T01:18:01.613Z,86.70
2023-03-17T01:20:32.889Z,86.47
2023-03-17T01:23:01.621Z,86.40
2023-03-17T01:25:29.314Z,86.14
2023-03-17T01:28:00.564Z,86.42
2023-03-17T01:30:38.787Z,86.38
2023-03-17T01:33:08.589Z,86.08
2023-03-17T01:35:36.972Z,86.00
2023-03-17T01:38:05.088Z,86.10
2023-03-17T01:40:37.462Z,86.11
2023-03-17T01:43:17.488Z,86.15
2023-03-17T01:46:24.917Z,86.13
2023-03-17T01:49:15.734Z,86.27
2023-03-17T01:52:14.400Z,86.38
2023-03-17T01:54:56.356Z,86.27
2023-03-17T01:57:28.667Z,86.06
2023-03-17T02:00:03.140Z,86.14
2023-03-17T02:02:46.201Z,86.12
2023-03-17T02:05:17.111Z,86.11
2023-03-17T02:07:45.255Z,85.94
2023-03-17T02:10:13.745Z,85.76
2023-03-17T02:12:42.587Z,85.81
2023-03-17T02:15:10.921Z,85.79
2023-03-17T02:17:57.948Z,85.65
2023-03-17T02:20:24.798Z,85.31
2023-03-17T02:22:55.026Z,85.51
2023-03-17T02:25:23.955Z,85.15
2023-03-17T02:27:57.380Z,84.92
2023-03-17T02:30:25.456Z,84.65
2023-03-17T02:32:52.730Z,84.81
2023-03-17T02:35:22.449Z,84.44
2023-03-17T02:37:49.360Z,84.35
2023-03-17T02:40:16.757Z,84.35
2023-03-17T02:42:43.768Z,83.77
2023-03-17T02:45:12.820Z,83.88
2023-03-17T02:47:40.218Z,83.46
2023-03-17T02:50:08.704Z,83.36
2023-03-17T02:52:35.829Z,83.21
2023-03-17T02:55:02.759Z,83.02
2023-03-17T02:57:30.072Z,83.07
2023-03-17T02:59:57.205Z,82.73
2023-03-17T03:02:24.109Z,82.39
2023-03-17T03:04:51.128Z,82.37
2023-03-17T03:07:18.143Z,82.54
2023-03-17T03:09:45.602Z,82.46
2023-03-17T03:12:13.942Z,82.62
2023-03-17T03:14:41.162Z,82.63
2023-03-17T03:17:09.778Z,82.53
2023-03-17T03:19:36.671Z,82.08
2023-03-17T03:22:03.884Z,81.55
2023-03-17T03:24:30.855Z,81.45
2023-03-17T03:26:57.796Z,81.07
2023-03-17T03:29:24.718Z,80.81
2023-03-17T03:31:51.796Z,80.76
2023-03-17T03:34:19.067Z,80.84
2023-03-17T03:36:46.121Z,80.64
2023-03-17T03:39:14.504Z,80.44
2023-03-17T03:41:41.864Z,80.31
2023-03-17T03:44:08.825Z,79.94
2023-03-17T03:46:35.915Z,79.62
2023-03-17T03:49:02.960Z,79.24
2023-03-17T03:51:29.885Z,79.08
2023-03-17T03:53:56.837Z,78.70
2023-03-17T03:56:23.742Z,78.50
2023-03-17T03:58:51.619Z,78.08
2023-03-17T04:01:18.780Z,77.91
2023-03-17T04:03:47.467Z,78.01
2023-03-17T04:06:14.991Z,77.74
2023-03-17T04:08:43.037Z,77.60
2023-03-17T04:11:10.281Z,76.94
2023-03-17T04:13:38.001Z,76.67
2023-03-17T04:16:05.286Z,76.55
2023-03-17T04:18:32.252Z,76.42
2023-03-17T04:20:59.607Z,76.11
2023-03-17T04:23:26.630Z,75.25
2023-03-17T04:25:54.138Z,75.02
2023-03-17T04:28:22.480Z,74.77
2023-03-17T04:30:49.438Z,74.47
2023-03-17T04:33:16.846Z,74.07
2023-03-17T04:35:44.088Z,73.82
2023-03-17T04:38:13.301Z,73.57
2023-03-17T04:40:40.869Z,73.25
2023-03-17T04:43:08.014Z,73.24
2023-03-17T04:45:35.085Z,73.11
2023-03-17T04:48:02.087Z,73.00
2023-03-17T04:50:29.567Z,72.72
2023-03-17T04:52:56.685Z,72.12
2023-03-17T04:55:23.634Z,71.98
2023-03-17T04:57:50.684Z,71.67
2023-03-17T05:00:18.294Z,71.07
2023-03-17T05:02:45.195Z,70.40
2023-03-17T05:05:13.024Z,70.07
2023-03-17T05:07:40.351Z,70.00
2023-03-17T05:10:08.013Z,69.81
2023-03-17T05:12:34.985Z,69.83
2023-03-17T05:15:01.981Z,69.62
2023-03-17T05:17:33.501Z,69.47
2023-03-17T05:20:00.659Z,69.44
2023-03-17T05:22:27.592Z,69.21
2023-03-17T05:24:54.529Z,69.48
2023-03-17T05:27:21.901Z,69.15
2023-03-17T05:29:49.915Z,68.80
2023-03-17T05:32:16.937Z,68.39
2023-03-17T05:34:45.203Z,67.92
2023-03-17T05:37:12.882Z,67.59
2023-03-17T05:39:40.261Z,66.59
2023-03-17T05:42:08.556Z,66.66
2023-03-17T05:44:35.589Z,66.59
2023-03-17T05:47:03.019Z,66.62
2023-03-17T05:49:30.041Z,66.16
2023-03-17T05:51:57.062Z,66.00
2023-03-17T05:54:24.308Z,66.10
2023-03-17T05:56:51.596Z,65.89
2023-03-17T05:59:18.672Z,65.18
2023-03-17T06:01:45.769Z,64.78
2023-03-17T06:04:12.834Z,64.69
2023-03-17T06:06:40.152Z,64.03
2023-03-17T06:09:07.246Z,63.94
2023-03-17T06:11:34.710Z,63.21
2023-03-17T06:14:02.186Z,63.30
2023-03-17T06:16:30.911Z,63.12
2023-03-17T06:18:57.948Z,63.07
2023-03-17T06:21:25.004Z,62.42
2023-03-17T06:23:52.209Z,61.61
2023-03-17T06:26:19.206Z,61.62
2023-03-17T06:28:46.704Z,61.04
2023-03-17T06:31:13.608Z,60.99
2023-03-17T06:33:40.941Z,60.93
2023-03-17T06:36:08.949Z,60.81
2023-03-17T06:38:35.902Z,60.43
2023-03-17T06:41:03.493Z,60.17
2023-03-17T06:43:31.543Z,59.67
2023-03-17T06:46:01.045Z,59.82
2023-03-17T06:48:28.815Z,59.22
2023-03-17T06:50:55.726Z,59.26
2023-03-17T06:53:22.714Z,58.99
2023-03-17T06:55:49.784Z,58.59
2023-03-17T06:58:17.101Z,58.58
2023-03-17T07:00:47.251Z,58.19
2023-03-17T07:03:14.907Z,58.08
2023-03-17T07:05:42.326Z,57.74
2023-03-17T07:08:09.491Z,57.73
2023-03-17T07:10:36.910Z,56.85
2023-03-17T07:13:06.117Z,56.28
2023-03-17T07:15:35.282Z,57.06
2023-03-17T07:18:02.694Z,56.83
2023-03-17T07:20:29.836Z,56.85
2023-03-17T07:22:57.308Z,56.14
2023-03-17T07:25:24.538Z,55.95
2023-03-17T07:27:52.101Z,55.91
2023-03-17T07:30:19.472Z,55.53
2023-03-17T07:32:47.949Z,55.10
2023-03-17T07:35:15.660Z,54.64
2023-03-17T07:37:45.667Z,54.09
2023-03-17T07:40:12.882Z,53.98
2023-03-17T07:42:39.896Z,53.46
2023-03-17T07:45:08.092Z,53.75
2023-03-17T07:47:35.082Z,53.76
2023-03-17T07:50:03.253Z,53.27
2023-03-17T07:52:30.860Z,53.02
2023-03-17T07:54:58.946Z,52.95
2023-03-17T07:57:25.905Z,52.63
2023-03-17T07:59:52.994Z,52.32
2023-03-17T08:02:20.308Z,52.07
2023-03-17T08:04:47.706Z,51.85
2023-03-17T08:07:15.679Z,51.62
2023-03-17T08:09:42.962Z,50.93
2023-03-17T08:12:11.760Z,50.88
2023-03-17T08:14:38.714Z,49.90
2023-03-17T08:17:06.586Z,48.81
2023-03-17T08:19:33.689Z,47.53
2023-03-17T08:22:01.458Z,46.84
2023-03-17T08:24:28.580Z,45.96
2023-03-17T08:26:55.530Z,46.00
2023-03-17T08:29:22.547Z,45.80
2023-03-17T08:31:49.634Z,46.07
2023-03-17T08:34:16.675Z,45.80
2023-03-17T08:36:44.464Z,45.71
2023-03-17T08:39:11.940Z,45.03
2023-03-17T08:41:38.849Z,45.91
2023-03-17T08:44:05.925Z,45.93
2023-03-17T08:46:33.553Z,45.52
2023-03-17T08:49:01.182Z,45.83
2023-03-17T08:51:34.551Z,45.19
2023-03-17T08:54:02.439Z,44.75
2023-03-17T08:56:29.646Z,44.75
2023-03-17T08:58:56.803Z,44.25
2023-03-17T09:01:24.595Z,43.92
2023-03-17T09:03:55.170Z,43.73
2023-03-17T09:06:23.460Z,42.98
2023-03-17T09:08:55.492Z,42.92
2023-03-17T09:11:26.141Z,41.09
2023-03-17T09:13:53.930Z,41.08
2023-03-17T09:16:23.305Z,40.68
2023-03-17T09:18:50.519Z,39.10
2023-03-17T09:21:17.767Z,38.12
2023-03-17T09:23:44.631Z,37.14
2023-03-17T09:26:12.813Z,37.10
2023-03-17T09:28:39.896Z,36.34
2023-03-17T09:31:11.519Z,35.68
2023-03-17T09:33:41.013Z,34.78
2023-03-17T09:36:12.172Z,34.46
2023-03-17T09:38:39.452Z,33.67
2023-03-17T09:41:40.667Z,33.48
2023-03-17T09:44:30.289Z,33.81
2023-03-17T09:47:18.424Z,32.28
2023-03-17T09:49:50.693Z,32.18
2023-03-17T09:52:20.420Z,31.13
2023-03-17T09:54:49.828Z,31.09
2023-03-17T09:57:29.566Z,30.27
2023-03-17T10:00:06.974Z,29.66
2023-03-17T10:02:40.019Z,29.92
2023-03-17T10:05:35.633Z,30.31
2023-03-17T10:08:10.859Z,29.17
2023-03-17T10:10:50.038Z,29.71
2023-03-17T10:13:56.038Z,30.57
2023-03-17T10:16:32.629Z,29.87
2023-03-17T10:19:05.601Z,28.54
2023-03-17T10:21:34.487Z,28.83
2023-03-17T10:24:03.727Z,27.88
2023-03-17T10:26:42.068Z,28.04
2023-03-17T10:29:15.102Z,27.74
2023-03-17T10:31:42.396Z,26.68
2023-03-17T10:34:17.866Z,26.83
2023-03-17T10:36:51.583Z,26.43
2023-03-17T10:39:20.702Z,26.82
2023-03-17T10:41:55.732Z,26.25
2023-03-17T10:45:03.286Z,26.01
2023-03-17T10:47:35.807Z,24.96
2023-03-17T10:50:23.071Z,24.20
2023-03-17T10:53:01.850Z,22.84
2023-03-17T10:55:34.350Z,22.93
2023-03-17T10:58:23.988Z,21.69
2023-03-17T11:01:29.779Z,21.35
2023-03-17T11:03:58.170Z,20.34
2023-03-17T11:06:42.333Z,20.59
2023-03-17T11:09:13.329Z,20.86
2023-03-17T11:11:48.115Z,21.20
2023-03-17T11:14:18.807Z,19.72
2023-03-17T11:17:00.258Z,19.76
2023-03-17T11:19:58.704Z,19.73
2023-03-17T11:22:35.447Z,19.46
2023-03-17T11:25:23.714Z,20.65
2023-03-17T11:28:06.728Z,20.89
2023-03-17T11:30:37.638Z,20.97
2023-03-17T11:33:05.694Z,20.97
2023-03-17T11:35:46.932Z,20.13
2023-03-17T11:38:20.286Z,20.27
2023-03-17T11:40:47.802Z,20.04
2023-03-17T11:43:44.004Z,19.90
2023-03-17T11:46:24.722Z,19.97
2023-03-17T11:49:06.890Z,20.02
2023-03-17T11:52:03.644Z,20.03
2023-03-17T11:54:40.017Z,20.37
2023-03-17T11:57:15.551Z,19.48
2023-03-17T11:59:52.160Z,20.21
2023-03-17T12:02:41.475Z,20.21
2023-03-17T12:05:13.765Z,19.50
2023-03-17T12:07:54.945Z,18.48
2023-03-17T12:10:37.819Z,18.21
2023-03-17T12:13:19.907Z,18.74
2023-03-17T12:15:51.100Z,18.64
2023-03-17T12:18:23.905Z,19.09
2023-03-17T12:21:14.695Z,18.62
2023-03-17T12:23:50.273Z,18.96
2023-03-17T12:26:28.881Z,18.89
2023-03-17T12:29:04.952Z,18.55
2023-03-17T12:31:35.406Z,18.86
2023-03-17T12:34:03.322Z,19.18
2023-03-17T12:36:30.374Z,19.09
2023-03-17T12:39:01.999Z,19.03
2023-03-17T12:41:47.670Z,19.24
2023-03-17T12:44:27.266Z,19.59
2023-03-17T12:47:28.645Z,18.29
2023-03-17T12:50:04.732Z,19.37
2023-03-17T12:52:43.525Z,19.03
2023-03-17T12:55:14.295Z,18.16
2023-03-17T12:57:47.411Z,16.89
2023-03-17T13:00:18.543Z,17.31
2023-03-17T13:03:09.479Z,18.25
2023-03-17T13:05:37.701Z,18.03
2023-03-17T13:08:07.703Z,18.10
2023-03-17T13:10:48.751Z,17.80
2023-03-17T13:13:23.453Z,17.00
2023-03-17T13:15:53.891Z,16.94
2023-03-17T13:18:20.798Z,17.00
2023-03-17T13:21:00.500Z,17.16
2023-03-17T13:23:55.438Z,17.12
2023-03-17T13:26:59.933Z,16.73
2023-03-17T13:29:40.067Z,16.61
2023-03-17T13:32:16.159Z,17.09
2023-03-17T13:34:50.012Z,16.85
2023-03-17T13:37:31.021Z,16.97
2023-03-17T13:40:10.258Z,16.34
2023-03-17T13:42:38.137Z,16.63
2023-03-17T13:45:32.984Z,16.78
2023-03-17T13:48:32.490Z,17.15
2023-03-17T13:51:13.184Z,16.18
2023-03-17T13:53:51.862Z,15.91
2023-03-17T13:56:23.073Z,16.22
2023-03-17T13:59:01.960Z,15.85
2023-03-17T14:01:32.599Z,16.21
2023-03-17T14:04:03.241Z,16.45
2023-03-17T14:06:34.519Z,16.38
2023-03-17T14:09:08.598Z,16.19
2023-03-17T14:11:38.503Z,16.28
2023-03-17T14:14:44.921Z,16.58
2023-03-17T14:17:21.234Z,16.43
2023-03-17T14:20:00.776Z,16.73
2023-03-17T14:22:27.980Z,16.63
2023-03-17T14:24:59.082Z,16.92
2023-03-17T14:27:27.307Z,17.07
2023-03-17T14:29:54.320Z,17.21
2023-03-17T14:32:26.401Z,17.61
2023-03-17T14:34:59.778Z,19.48
2023-03-17T14:37:28.398Z,21.50
2023-03-17T14:39:57.729Z,22.92
2023-03-17T14:42:32.118Z,23.80
2023-03-17T14:45:07.351Z,24.27
2023-03-17T14:47:40.524Z,24.68
2023-03-17T14:50:17.618Z,25.23
2023-03-17T14:52:44.889Z,25.62
2023-03-17T14:55:14.661Z,25.96
2023-03-17T14:57:41.830Z,25.89
2023-03-17T15:00:53.479Z,25.52
2023-03-17T15:03:22.903Z,26.09
2023-03-17T15:05:50.542Z,26.44
2023-03-17T15:08:41.307Z,27.00
2023-03-17T15:11:09.111Z,27.51
2023-03-17T15:13:38.037Z,28.41
2023-03-17T15:16:18.206Z,29.23
2023-03-17T15:18:45.613Z,28.90
2023-03-17T15:21:32.602Z,29.42
2023-03-17T15:24:05.039Z,29.04
2023-03-17T15:26:32.370Z,29.54
2023-03-17T15:29:00.700Z,29.10
2023-03-17T15:31:30.303Z,29.45
2023-03-17T15:33:57.985Z,29.93
2023-03-17T15:36:32.708Z,30.02
2023-03-17T15:39:01.290Z,30.38
2023-03-17T15:41:28.507Z,30.85
2023-03-17T15:43:55.520Z,30.28
2023-03-17T15:46:27.420Z,30.10
2023-03-17T15:48:54.632Z,29.77
2023-03-17T15:51:22.151Z,30.41
2023-03-17T15:53:49.298Z,30.10
2023-03-17T15:56:21.140Z,30.67
2023-03-17T15:58:49.385Z,30.45
2023-03-17T16:01:17.104Z,30.88
2023-03-17T16:03:45.591Z,30.33
2023-03-17T16:06:21.432Z,30.99
2023-03-17T16:08:49.347Z,31.24
2023-03-17T16:11:20.461Z,31.47
2023-03-17T16:13:47.585Z,31.92
2023-03-17T16:16:21.665Z,32.13
2023-03-17T16:18:51.088Z,32.27
2023-03-17T16:21:19.235Z,32.47
2023-03-17T16:23:46.668Z,32.00
2023-03-17T16:26:15.914Z,32.64
2023-03-17T16:28:45.653Z,33.08
2023-03-17T16:31:33.196Z,33.02
2023-03-17T16:34:00.247Z,33.46
2023-03-17T16:36:27.279Z,33.95
2023-03-17T16:38:54.266Z,33.91
2023-03-17T16:41:24.363Z,33.64
2023-03-17T16:44:01.350Z,34.32
2023-03-17T16:46:34.459Z,34.08
2023-03-17T16:49:04.191Z,34.58
2023-03-17T16:51:31.272Z,34.66
2023-03-17T16:53:59.308Z,34.84
2023-03-17T16:56:27.591Z,35.07
2023-03-17T16:58:54.655Z,35.17
2023-03-17T17:01:26.521Z,35.54
2023-03-17T17:03:54.197Z,36.13
2023-03-17T17:06:22.444Z,35.62
2023-03-17T17:08:50.821Z,36.07
2023-03-17T17:11:19.572Z,36.87
2023-03-17T17:13:47.970Z,37.31
2023-03-17T17:16:26.717Z,37.08
2023-03-17T17:18:53.990Z,37.07
2023-03-17T17:21:21.036Z,37.26
2023-03-17T17:23:47.958Z,37.55
2023-03-17T17:26:15.167Z,37.79
2023-03-17T17:28:42.844Z,38.20
2023-03-17T17:31:10.694Z,38.28
2023-03-17T17:33:39.273Z,38.71
2023-03-17T17:36:14.790Z,38.98
2023-03-17T17:38:44.612Z,39.22
2023-03-17T17:41:12.414Z,39.03
2023-03-17T17:43:40.021Z,38.84
2023-03-17T17:46:12.162Z,39.13
2023-03-17T17:48:54.680Z,39.41
2023-03-17T17:51:22.331Z,39.14
2023-03-17T17:53:49.397Z,39.28
2023-03-17T17:56:22.893Z,40.05
2023-03-17T17:58:50.642Z,40.19
2023-03-17T18:01:22.049Z,40.08
2023-03-17T18:03:49.141Z,40.31
2023-03-17T18:06:18.010Z,40.61
2023-03-17T18:08:45.016Z,40.18
2023-03-17T18:11:14.353Z,39.83
2023-03-17T18:13:41.585Z,39.48
2023-03-17T18:16:10.162Z,39.35
2023-03-17T18:18:40.655Z,38.89
2023-03-17T18:21:08.454Z,39.16
2023-03-17T18:23:36.643Z,40.07
2023-03-17T18:26:06.069Z,40.47
2023-03-17T18:28:33.132Z,40.99
2023-03-17T18:31:05.668Z,40.58
2023-03-17T18:33:32.799Z,40.45
2023-03-17T18:35:59.883Z,40.79
2023-03-17T18:38:26.893Z,41.20
2023-03-17T18:40:53.784Z,41.23
2023-03-17T18:43:21.402Z,41.51
2023-03-17T18:45:48.319Z,41.48
2023-03-17T18:48:15.551Z,41.26
2023-03-17T18:50:42.776Z,41.23
2023-03-17T18:53:09.665Z,41.36
2023-03-17T18:55:36.739Z,41.68
2023-03-17T18:58:03.944Z,41.42
2023-03-17T19:00:31.254Z,41.81
2023-03-17T19:02:58.376Z,41.67
2023-03-17T19:05:25.735Z,41.75
2023-03-17T19:07:52.739Z,42.34
2023-03-17T19:10:19.740Z,42.50
2023-03-17T19:12:47.415Z,42.74
2023-03-17T19:15:14.755Z,42.76
2023-03-17T19:17:41.968Z,42.54
2023-03-17T19:20:10.253Z,42.61
2023-03-17T19:22:37.269Z,43.02
2023-03-17T19:25:04.483Z,43.14
2023-03-17T19:27:31.672Z,43.40
2023-03-17T19:29:58.602Z,43.05
2023-03-17T19:32:25.842Z,43.23
2023-03-17T19:34:53.184Z,43.40
2023-03-17T19:37:20.194Z,43.70
2023-03-17T19:39:47.118Z,44.10
2023-03-17T19:42:16.324Z,43.84
2023-03-17T19:44:44.876Z,43.96
2023-03-17T19:47:12.076Z,43.80
2023-03-17T19:49:39.121Z,43.73
2023-03-17T19:52:07.719Z,44.01
2023-03-17T19:54:35.070Z,44.49
2023-03-17T19:57:02.202Z,44.69
2023-03-17T19:59:29.131Z,44.53
2023-03-17T20:01:56.103Z,44.76
2023-03-17T20:04:23.330Z,44.59
2023-03-17T20:06:55.726Z,44.70
2023-03-17T20:09:26.196Z,44.81
2023-03-17T20:11:53.983Z,44.76
2023-03-17T20:14:21.220Z,44.64
2023-03-17T20:16:48.698Z,44.82
2023-03-17T20:19:16.453Z,44.99
2023-03-17T20:21:43.543Z,45.13
2023-03-17T20:24:12.520Z,45.09
2023-03-17T20:26:39.925Z,44.93
2023-03-17T20:29:08.191Z,45.09
2023-03-17T20:31:36.140Z,45.28
2023-03-17T20:34:03.257Z,45.46
2023-03-17T20:36:30.164Z,45.62
2023-03-17T20:38:57.133Z,45.74
2023-03-17T20:41:24.223Z,45.67
2023-03-17T20:43:51.332Z,45.57
2023-03-17T20:46:21.762Z,45.51
2023-03-17T20:48:48.915Z,45.26
2023-03-17T20:51:17.097Z,45.43
2023-03-17T20:53:55.310Z,45.84
2023-03-17T20:56:24.289Z,46.07
2023-03-17T20:58:53.313Z,46.39
2023-03-17T21:01:21.611Z,46.68
2023-03-17T21:03:51.646Z,46.85
2023-03-17T21:06:19.870Z,46.35
2023-03-17T21:08:47.319Z,46.24
2023-03-17T21:11:17.986Z,45.85
2023-03-17T21:13:47.774Z,45.74
2023-03-17T21:16:24.090Z,45.73
2023-03-17T21:18:51.638Z,45.65
2023-03-17T21:21:19.932Z,45.63
2023-03-17T21:23:47.131Z,45.56
2023-03-17T21:26:14.796Z,45.49
2023-03-17T21:28:42.707Z,44.70
2023-03-17T21:31:14.120Z,44.38
2023-03-17T21:33:42.274Z,44.69
2023-03-17T21:36:12.891Z,44.84
2023-03-17T21:38:40.032Z,44.64
2023-03-17T21:41:39.631Z,44.58
2023-03-17T21:44:07.975Z,44.50
2023-03-17T21:46:35.093Z,44.75
2023-03-17T21:49:02.426Z,44.91
2023-03-17T21:51:30.506Z,44.84
2023-03-17T21:54:00.764Z,44.94
2023-03-17T21:56:29.753Z,44.98
2023-03-17T21:58:57.800Z,45.09
2023-03-17T22:01:26.371Z,45.02
2023-03-17T22:03:53.446Z,45.22
2023-03-17T22:06:21.234Z,45.76
2023-03-17T22:08:48.922Z,46.06
2023-03-17T22:11:17.855Z,45.73
2023-03-17T22:13:45.262Z,45.85
2023-03-17T22:16:13.051Z,45.88
2023-03-17T22:18:40.151Z,46.12
2023-03-17T22:21:08.360Z,46.15
2023-03-17T22:23:41.174Z,46.61
2023-03-17T22:26:19.075Z,46.62
2023-03-17T22:28:47.518Z,46.64
2023-03-17T22:31:20.504Z,46.73
2023-03-17T22:33:49.198Z,47.04
2023-03-17T22:36:16.584Z,47.14
2023-03-17T22:38:43.820Z,47.27
2023-03-17T22:41:16.636Z,47.27
2023-03-17T22:43:43.983Z,47.65
2023-03-17T22:46:11.743Z,47.65
2023-03-17T22:48:40.279Z,47.78
2023-03-17T22:51:10.359Z,47.54
2023-03-17T22:53:39.191Z,47.75
2023-03-17T22:56:07.252Z,47.71
2023-03-17T22:58:34.213Z,48.15
2023-03-17T23:01:01.428Z,48.09
2023-03-17T23:03:28.933Z,48.32
2023-03-17T23:05:58.562Z,48.53
2023-03-17T23:08:27.298Z,48.41
2023-03-17T23:10:54.924Z,48.25
2023-03-17T23:13:22.449Z,48.76
2023-03-17T23:15:49.416Z,48.89
2023-03-17T23:18:17.564Z,49.17
2023-03-17T23:20:45.145Z,48.97
2023-03-17T23:23:12.426Z,49.10
2023-03-17T23:25:39.630Z,49.02
2023-03-17T23:28:07.744Z,49.27
2023-03-17T23:30:35.933Z,49.35
2023-03-17T23:33:05.002Z,49.50
2023-03-17T23:35:32.451Z,49.40
2023-03-17T23:37:59.768Z,49.48
2023-03-17T23:40:26.659Z,49.60
2023-03-17T23:42:55.201Z,49.65
2023-03-17T23:45:23.331Z,49.48
2023-03-17T23:47:51.695Z,49.81
2023-03-17T23:50:19.552Z,49.83
2023-03-17T23:52:47.281Z,50.13
2023-03-17T23:55:16.143Z,50.33
2023-03-17T23:57:44.287Z,50.34
